8B0

Steven A Bean Municipal Airport

Rangeley, Maine, USA
METAR K8B0 231335Z AUTO 18003KT 7SM OVC007 20/19 A3031 RMK AO2
Observed Flight Rules
Jul-23 @ 13:35 UTC (8 minutes ago) Instrument Flight Rules
Wind Visibility Clouds
180° at 3 knots 7 miles
  • Overcast at 700' AGL
Temperatures Readings
Current 20°C / 68°F
Dewpoint 19°C / 66°F
Humidity 94%
Altimeter 30.31" Hg
Pressure 1026 hPa
METAR K8B0 231335Z AUTO 18003KT 7SM OVC007 20/19 A3031 RMK AO2
Observed Flight Rules
Jul-23 @ 13:35 UTC
(8 minutes ago)
IFR
Wind Visibility
180° at 3 knots 7 miles
Clouds
  • Overcast at 700' AGL
Temperature Dewpoint
20°C / 68°F 19°C / 66°F
Humidity Altimeter Pressure
94% 30.31" Hg 1026 hPa